Time;durP1;ratioP1;P1;durP2;ratioP2;P2;SDS_P1;SDS_P2;PMS_P1;PMS_P2;Temp;Humidity;BMP_temperature;BMP_pressure;BME280_temperature;BME280_humidity;BME280_pressure;Samples;Min_cycle;Max_cycle;Signal;HPM_P1;HPM_P2
2023/06/25 00:01:14;;;;;;;7.28;6.45;;;;;;;19.40;84.57;102091.78;4993244;28;20043;-80
2023/06/25 00:03:41;;;;;;;9.43;7.38;;;;;;;19.38;84.62;102090.75;4992574;28;20153;-81
2023/06/25 00:06:07;;;;;;;10.73;6.90;;;;;;;19.31;84.45;102097.28;4993132;28;20050;-81
2023/06/25 00:08:34;;;;;;;7.38;6.72;;;;;;;19.30;85.14;102091.13;4992323;28;20405;-81
2023/06/25 00:11:01;;;;;;;10.27;7.28;;;;;;;19.23;84.87;102091.50;4992272;28;20054;-81
2023/06/25 00:13:27;;;;;;;7.95;7.07;;;;;;;19.22;84.96;102084.63;4992572;28;20051;-81
2023/06/25 00:15:54;;;;;;;8.30;7.57;;;;;;;19.20;85.59;102089.00;4993152;28;20043;-81
2023/06/25 00:18:20;;;;;;;9.07;8.18;;;;;;;19.18;85.43;102089.47;4992451;28;20047;-81
2023/06/25 00:20:48;;;;;;;10.48;8.88;;;;;;;19.18;85.63;102086.03;4992811;28;20053;-80
2023/06/25 00:23:16;;;;;;;9.20;8.20;;;;;;;19.13;85.28;102081.28;4992707;28;20508;-82
2023/06/25 00:25:43;;;;;;;9.35;8.45;;;;;;;19.10;86.36;102084.91;4992821;28;20485;-81
2023/06/25 00:28:09;;;;;;;9.48;8.20;;;;;;;19.08;87.05;102079.25;4993431;28;20075;-81
2023/06/25 00:30:39;;;;;;;9.73;8.80;;;;;;;19.05;86.66;102082.88;4990764;28;20042;-80
2023/06/25 00:33:07;;;;;;;11.27;9.53;;;;;;;18.99;87.29;102080.81;4991112;28;20059;-81
2023/06/25 00:35:55;;;;;;;11.75;9.07;;;;;;;18.98;86.49;102073.94;4990831;28;20113;-80
2023/06/25 00:38:21;;;;;;;9.25;8.35;;;;;;;18.91;87.09;102070.88;4974408;28;20102;-81
2023/06/25 00:40:49;;;;;;;9.45;8.55;;;;;;;18.89;87.30;102068.63;4975211;28;20046;-81
2023/06/25 00:43:17;;;;;;;9.15;8.25;;;;;;;18.87;87.33;102079.13;4974734;28;20058;-81
2023/06/25 00:45:44;;;;;;;9.77;8.80;;;;;;;18.84;88.35;102073.94;4974881;28;20538;-82
2023/06/25 00:48:11;;;;;;;9.45;8.50;;;;;;;18.79;87.94;102071.91;4993083;28;20498;-82
2023/06/25 00:50:37;;;;;;;10.77;9.10;;;;;;;18.77;88.41;102079.72;4974734;28;20039;-82
2023/06/25 00:53:08;;;;;;;9.80;8.35;;;;;;;18.74;88.69;102067.16;4992658;28;20058;-82
2023/06/25 00:55:36;;;;;;;9.65;8.55;;;;;;;18.72;88.19;102067.63;4990771;28;20078;-82
2023/06/25 00:58:03;;;;;;;11.52;9.57;;;;;;;18.68;88.83;102058.97;4974922;28;20053;-82
2023/06/25 01:00:33;;;;;;;9.43;8.63;;;;;;;18.65;88.73;102059.88;4973746;28;20133;-82
2023/06/25 01:03:12;;;;;;;9.25;8.27;;;;;;;18.62;88.45;102052.72;4977351;28;20134;-81
2023/06/25 01:05:51;;;;;;;10.45;9.40;;;;;;;18.59;88.65;102053.63;4996132;28;20053;-81
2023/06/25 01:08:38;;;;;;;11.45;8.75;;;;;;;18.53;88.97;102060.84;4977620;28;20061;-81
2023/06/25 01:11:05;;;;;;;10.00;8.20;;;;;;;18.47;89.20;102054.63;4995229;28;20061;-81
2023/06/25 01:13:32;;;;;;;8.95;8.23;;;;;;;18.43;89.40;102046.69;4977487;28;20086;-81
2023/06/25 01:15:58;;;;;;;9.88;8.63;;;;;;;18.40;90.05;102047.63;4995466;28;20046;-81
2023/06/25 01:18:25;;;;;;;10.02;8.10;;;;;;;18.40;89.04;102046.88;4977485;28;20122;-80
2023/06/25 01:20:56;;;;;;;10.20;8.43;;;;;;;18.36;89.96;102040.94;4995623;28;20047;-80
2023/06/25 01:23:23;;;;;;;11.57;8.25;;;;;;;18.28;89.77;102041.31;4977861;28;20047;-81
2023/06/25 01:25:50;;;;;;;11.02;8.32;;;;;;;18.22;89.61;102037.75;4995561;28;20069;-81
2023/06/25 01:28:20;;;;;;;10.15;7.72;;;;;;;18.21;90.11;102044.34;4995404;28;20303;-81
2023/06/25 01:30:48;;;;;;;9.38;8.23;;;;;;;18.19;90.59;102032.53;4977601;28;20039;-80
2023/06/25 01:33:15;;;;;;;8.27;7.57;;;;;;;18.16;90.60;102030.75;4995363;28;20534;-81
2023/06/25 01:35:42;;;;;;;7.70;6.97;;;;;;;18.14;90.63;102035.88;4977425;28;20082;-81
2023/06/25 01:38:09;;;;;;;10.00;7.82;;;;;;;18.11;90.56;102036.78;4977825;28;20499;-81
2023/06/25 01:40:36;;;;;;;8.52;7.43;;;;;;;18.08;89.73;102026.91;4994762;28;20050;-81
2023/06/25 01:43:03;;;;;;;8.98;6.57;;;;;;;18.04;89.65;102026.34;4995793;28;20046;-81
2023/06/25 01:45:29;;;;;;;8.13;6.18;;;;;;;17.98;89.74;102020.88;4976533;28;20058;-81
2023/06/25 01:47:58;;;;;;;7.65;6.93;;;;;;;17.91;89.93;102021.97;4995502;28;20046;-81
2023/06/25 01:50:24;;;;;;;6.95;6.30;;;;;;;17.88;89.26;102019.44;4994572;28;20943;-80
2023/06/25 01:52:52;;;;;;;7.30;6.60;;;;;;;17.85;89.37;102009.59;4993821;28;20055;-80
2023/06/25 01:55:18;;;;;;;7.78;6.75;;;;;;;17.85;89.97;102009.59;4994836;28;20126;-81
2023/06/25 01:57:45;;;;;;;8.38;6.90;;;;;;;17.81;89.55;102001.69;4977803;28;20082;-80
2023/06/25 02:00:13;;;;;;;9.05;7.35;;;;;;;17.77;90.19;102000.34;4977145;28;20496;-81
2023/06/25 02:02:43;;;;;;;8.07;7.30;;;;;;;17.76;90.30;101999.63;4994995;28;20456;-81
2023/06/25 02:05:10;;;;;;;9.27;7.75;;;;;;;17.75;89.74;101994.69;4995101;28;20570;-80
2023/06/25 02:07:37;;;;;;;7.47;6.78;;;;;;;17.73;89.93;101997.84;4976620;28;20051;-80
2023/06/25 02:10:04;;;;;;;7.45;6.68;;;;;;;17.68;89.46;101990.38;4993117;28;20487;-80
2023/06/25 02:12:31;;;;;;;7.50;6.80;;;;;;;17.63;89.77;101989.03;4993895;28;20106;-80
2023/06/25 02:14:58;;;;;;;8.57;7.78;;;;;;;17.62;90.59;101989.50;4960410;28;20054;-80
2023/06/25 02:17:24;;;;;;;8.73;7.78;;;;;;;17.60;90.52;101984.56;4976676;28;20046;-80
2023/06/25 02:19:51;;;;;;;11.27;7.95;;;;;;;17.53;91.00;101974.16;4977089;28;21022;-80
2023/06/25 02:22:18;;;;;;;9.38;8.38;;;;;;;17.47;91.58;101981.38;4994559;28;20105;-80
2023/06/25 02:24:46;;;;;;;8.93;8.02;;;;;;;17.45;91.74;101981.06;4977148;28;20610;-80
2023/06/25 02:27:13;;;;;;;10.77;8.77;;;;;;;17.43;91.72;101974.66;4993914;28;20130;-81
2023/06/25 02:29:40;;;;;;;10.20;8.77;;;;;;;17.40;91.67;101981.69;4994423;28;20125;-80
2023/06/25 02:32:08;;;;;;;9.70;8.70;;;;;;;17.38;91.95;101975.28;4977941;28;20058;-80
2023/06/25 02:34:34;;;;;;;9.32;8.50;;;;;;;17.37;92.06;101977.22;4994328;28;20113;-80
2023/06/25 02:37:12;;;;;;;10.23;9.23;;;;;;;17.35;91.64;101979.63;4994652;28;20039;-80
2023/06/25 02:39:38;;;;;;;9.80;8.40;;;;;;;17.32;91.14;101972.47;4976198;28;20549;-80
2023/06/25 02:42:05;;;;;;;8.77;8.02;;;;;;;17.29;92.31;101971.44;4994140;28;20140;-79
2023/06/25 02:44:31;;;;;;;9.35;8.13;;;;;;;17.28;91.47;101969.19;4993934;28;20496;-79
2023/06/25 02:46:58;;;;;;;8.50;7.55;;;;;;;17.23;91.71;101967.13;4977451;28;20078;-79
2023/06/25 02:49:25;;;;;;;12.13;8.18;;;;;;;17.19;91.46;101966.56;4976392;28;20105;-78
2023/06/25 02:51:52;;;;;;;9.30;7.53;;;;;;;17.18;91.43;101968.50;4976559;28;20051;-79
2023/06/25 02:54:18;;;;;;;9.15;8.25;;;;;;;17.16;92.06;101968.22;4993457;28;20047;-79
2023/06/25 02:56:46;;;;;;;8.80;7.90;;;;;;;17.15;91.93;101971.38;4976192;28;20047;-79
2023/06/25 02:59:13;;;;;;;11.18;8.18;;;;;;;17.13;91.59;101961.06;4992734;28;20055;-79
2023/06/25 03:01:40;;;;;;;9.23;8.35;;;;;;;17.08;91.47;101963.63;4960351;28;20078;-79
2023/06/25 03:04:06;;;;;;;8.80;7.88;;;;;;;17.04;91.91;101958.41;4992891;28;20043;-79
2023/06/25 03:06:34;;;;;;;9.27;8.38;;;;;;;17.03;92.32;101964.22;4975786;28;20146;-79
2023/06/25 03:09:01;;;;;;;9.63;8.63;;;;;;;17.00;92.43;101957.81;4976309;28;20051;-79
2023/06/25 03:11:28;;;;;;;10.80;9.10;;;;;;;16.95;92.78;101961.88;4975321;28;20089;-79
2023/06/25 03:13:55;;;;;;;14.80;9.32;;;;;;;16.95;92.88;101959.19;4976089;28;20061;-80
2023/06/25 03:16:22;;;;;;;12.23;9.23;;;;;;;16.89;93.58;101954.88;4975459;28;20086;-79
2023/06/25 03:18:48;;;;;;;9.48;8.52;;;;;;;16.85;93.58;101963.09;4993841;28;20097;-78
2023/06/25 03:21:15;;;;;;;13.10;8.98;;;;;;;16.83;93.44;101954.72;4975695;28;20552;-79
2023/06/25 03:23:41;;;;;;;9.77;8.82;;;;;;;16.83;93.52;101962.78;4993292;28;20468;-80
2023/06/25 03:26:08;;;;;;;11.02;8.85;;;;;;;16.83;93.34;101954.72;4975114;28;20050;-79
2023/06/25 03:28:35;;;;;;;11.68;9.27;;;;;;;16.82;93.53;101955.19;4975471;28;20549;-79
2023/06/25 03:31:01;;;;;;;10.18;9.05;;;;;;;16.83;93.15;101952.03;4975761;28;20073;-79
2023/06/25 03:33:34;;;;;;;11.38;10.18;;;;;;;16.83;93.10;101952.03;4960619;28;20114;-79
2023/06/25 03:36:02;;;;;;;10.75;9.65;;;;;;;16.81;93.77;101946.38;4993248;28;20071;-78
2023/06/25 03:38:30;;;;;;;10.98;9.75;;;;;;;16.79;93.77;101940.72;4975143;28;20499;-79
2023/06/25 03:40:57;;;;;;;13.77;9.95;;;;;;;16.77;94.04;101937.00;4975323;28;20113;-79
2023/06/25 03:43:24;;;;;;;14.77;10.18;;;;;;;16.78;94.10;101941.91;4993063;28;20539;-79
2023/06/25 03:45:51;;;;;;;12.50;10.60;;;;;;;16.77;94.21;101939.69;4975801;28;20051;-79
2023/06/25 03:48:18;;;;;;;15.32;10.13;;;;;;;16.77;94.38;101934.31;4975536;28;20067;-79
2023/06/25 03:50:45;;;;;;;11.95;10.32;;;;;;;16.77;94.00;101932.38;4975764;28;20142;-80
2023/06/25 03:53:12;;;;;;;11.68;10.00;;;;;;;16.75;94.28;101934.00;4991667;28;20059;-79
2023/06/25 03:55:39;;;;;;;11.43;10.18;;;;;;;16.77;94.67;101937.00;4959088;28;20046;-79
2023/06/25 03:58:06;;;;;;;12.43;10.60;;;;;;;16.78;94.28;101936.53;4975640;28;20512;-80
2023/06/25 04:00:33;;;;;;;11.25;9.98;;;;;;;16.76;94.29;101944.31;4991163;28;20074;-80
2023/06/25 04:03:00;;;;;;;11.05;9.43;;;;;;;16.78;95.15;101938.50;4993261;28;20149;-79
2023/06/25 04:05:28;;;;;;;11.07;9.98;;;;;;;16.77;94.51;101939.69;4992534;28;20789;-79
2023/06/25 04:07:54;;;;;;;10.82;9.13;;;;;;;16.77;94.39;101934.31;4975489;28;20957;-80
2023/06/25 04:10:21;;;;;;;15.95;9.80;;;;;;;16.78;93.98;101933.84;4973707;28;20066;-80
2023/06/25 04:12:48;;;;;;;11.70;9.20;;;;;;;16.78;94.05;101933.84;4993196;28;20527;-79
2023/06/25 04:15:17;;;;;;;8.68;7.88;;;;;;;16.77;94.14;101937.75;4975003;28;20055;-80
2023/06/25 04:17:46;;;;;;;11.50;8.65;;;;;;;16.78;93.63;101933.09;4974881;28;20142;-80
2023/06/25 04:20:13;;;;;;;9.68;8.02;;;;;;;16.80;93.55;101936.81;4975169;28;20051;-81
2023/06/25 04:22:40;;;;;;;10.15;8.70;;;;;;;16.86;93.23;101936.94;4975113;28;20078;-80
2023/06/25 04:25:07;;;;;;;9.13;8.23;;;;;;;16.92;93.17;101938.56;4974963;28;20106;-81
2023/06/25 04:27:34;;;;;;;12.40;8.60;;;;;;;16.97;93.27;101935.25;4975131;28;20471;-81
2023/06/25 04:30:01;;;;;;;9.40;7.68;;;;;;;17.04;92.38;101936.13;4975215;28;20490;-81
2023/06/25 04:32:27;;;;;;;8.80;7.82;;;;;;;17.07;92.40;101930.59;4974765;28;20057;-80
2023/06/25 04:34:54;;;;;;;9.45;8.45;;;;;;;17.12;92.97;101935.34;4993101;28;20047;-80
2023/06/25 04:37:21;;;;;;;10.30;9.20;;;;;;;17.20;92.97;101935.75;4977467;28;20105;-80
2023/06/25 04:39:48;;;;;;;10.85;9.70;;;;;;;17.25;92.90;101927.78;4981572;28;20047;-80
2023/06/25 04:42:15;;;;;;;11.23;10.13;;;;;;;17.47;93.66;101935.59;4981545;28;20051;-80
2023/06/25 04:44:42;;;;;;;14.48;10.63;;;;;;;17.64;92.99;101928.59;4964917;28;20149;-81
2023/06/25 04:47:09;;;;;;;13.07;11.07;;;;;;;17.74;93.79;101931.25;4981818;28;20074;-81
2023/06/25 04:49:35;;;;;;;19.58;14.02;;;;;;;18.04;94.31;101937.44;4981254;28;20504;-82
2023/06/25 04:52:03;;;;;;;23.38;14.55;;;;;;;19.14;90.84;101935.09;4998879;28;20054;-81
2023/06/25 04:54:29;;;;;;;24.33;14.55;;;;;;;19.75;86.03;101934.38;4998583;28;20051;-81
2023/06/25 04:56:56;;;;;;;17.63;13.98;;;;;;;20.73;81.18;101934.31;4999284;28;20078;-80
2023/06/25 04:59:23;;;;;;;17.17;14.20;;;;;;;22.07;74.82;101941.06;4998376;28;20050;-81
2023/06/25 05:01:49;;;;;;;20.77;13.55;;;;;;;23.59;68.06;101939.63;4981724;28;20098;-81
2023/06/25 05:04:16;;;;;;;18.23;13.30;;;;;;;24.73;63.33;101931.63;4981153;28;20085;-80
2023/06/25 05:06:42;;;;;;;15.50;13.85;;;;;;;25.91;58.59;101941.88;4980597;28;20507;-81
2023/06/25 05:09:09;;;;;;;16.08;13.40;;;;;;;26.99;55.20;101934.84;4981812;28;20051;-81
2023/06/25 05:11:37;;;;;;;18.40;14.00;;;;;;;27.49;53.43;101944.75;4977415;28;20058;-81
2023/06/25 05:14:04;;;;;;;15.43;12.90;;;;;;;27.65;51.45;101942.94;4979715;28;20051;-81
2023/06/25 05:16:30;;;;;;;16.67;12.88;;;;;;;27.99;50.50;101940.16;4961477;28;20150;-81
2023/06/25 05:18:57;;;;;;;14.82;13.32;;;;;;;28.75;48.87;101943.50;4962060;28;20051;-82
2023/06/25 05:21:23;;;;;;;21.42;12.93;;;;;;;28.87;48.04;101944.69;4966345;28;20076;-82
2023/06/25 05:24:01;;;;;;;20.30;13.40;;;;;;;29.13;47.54;101943.72;4958476;28;20079;-82
2023/06/25 05:26:28;;;;;;;15.93;13.50;;;;;;;29.03;47.26;101936.53;4959099;28;20091;-83
2023/06/25 05:28:55;;;;;;;16.80;13.55;;;;;;;29.70;45.42;101935.31;4960156;28;20501;-83
2023/06/25 05:31:22;;;;;;;13.88;12.45;;;;;;;29.87;44.92;101943.03;4959410;28;20433;-81
2023/06/25 05:33:48;;;;;;;19.33;12.77;;;;;;;29.96;44.46;101947.25;4960081;28;20079;-84
2023/06/25 05:36:15;;;;;;;18.35;12.18;;;;;;;30.29;44.99;101937.19;4958133;28;20565;-84
2023/06/25 05:38:42;;;;;;;14.30;12.65;;;;;;;30.10;44.16;101949.28;4958196;28;20217;-83
2023/06/25 05:41:09;;;;;;;17.80;13.15;;;;;;;29.88;44.56;101944.47;4959846;28;20115;-84
2023/06/25 05:43:35;;;;;;;14.10;12.25;;;;;;;29.85;45.81;101938.06;4959193;28;20051;-83
2023/06/25 05:46:02;;;;;;;16.38;12.40;;;;;;;29.57;45.06;101937.50;4959909;28;20067;-84
2023/06/25 05:48:29;;;;;;;14.43;12.75;;;;;;;29.39;46.03;101931.72;4955561;28;20599;-84
2023/06/25 05:50:55;;;;;;;14.55;12.35;;;;;;;29.33;45.75;101930.44;4954986;28;20095;-84
2023/06/25 05:53:25;;;;;;;14.90;12.93;;;;;;;29.11;46.25;101929.09;4955450;28;20043;-84
2023/06/25 05:55:52;;;;;;;14.57;13.13;;;;;;;28.84;47.39;101929.31;4956040;28;20050;-84
2023/06/25 05:58:18;;;;;;;14.43;12.50;;;;;;;28.57;48.75;101930.78;4955743;28;20148;-84
2023/06/25 06:00:45;;;;;;;14.07;12.52;;;;;;;28.38;48.17;101935.78;4956662;28;20825;-84
2023/06/25 06:03:11;;;;;;;15.25;12.15;;;;;;;28.13;48.68;101925.13;4956896;28;20596;-84
2023/06/25 06:05:38;;;;;;;13.93;12.45;;;;;;;28.10;48.48;101928.94;4969873;28;20581;-82
2023/06/25 06:08:05;;;;;;;13.80;12.40;;;;;;;27.77;49.00;101918.78;4954913;28;20827;-83
2023/06/25 06:10:31;;;;;;;13.38;11.93;;;;;;;27.64;49.00;101911.38;4960507;28;20055;-83
2023/06/25 06:12:58;;;;;;;14.50;11.27;;;;;;;27.70;49.18;101916.72;4975320;28;20043;-83
2023/06/25 06:15:24;;;;;;;16.88;11.68;;;;;;;27.70;49.13;101914.72;4975060;28;20519;-83
2023/06/25 06:17:51;;;;;;;17.95;12.75;;;;;;;27.52;49.25;101918.34;4975704;28;20050;-84
2023/06/25 06:20:17;;;;;;;17.77;11.55;;;;;;;27.55;50.21;101918.03;4975452;28;20122;-83
2023/06/25 06:22:44;;;;;;;12.70;11.52;;;;;;;27.54;49.65;101915.81;4975549;28;20047;-85
2023/06/25 06:25:10;;;;;;;13.30;11.32;;;;;;;27.56;49.67;101921.50;4975739;28;20098;-84
2023/06/25 06:27:37;;;;;;;14.50;10.80;;;;;;;27.65;49.63;101912.84;4975314;28;20047;-84
2023/06/25 06:30:04;;;;;;;14.35;11.65;;;;;;;27.55;49.47;101914.56;4975353;28;20063;-85
2023/06/25 06:32:31;;;;;;;12.88;11.23;;;;;;;27.34;49.22;101921.97;4973514;28;20078;-84
2023/06/25 06:34:58;;;;;;;13.68;11.05;;;;;;;27.17;50.48;101914.88;4974920;28;20519;-84
2023/06/25 06:37:24;;;;;;;13.02;11.40;;;;;;;27.18;49.88;101910.13;4975128;28;20048;-84
2023/06/25 06:39:51;;;;;;;11.57;10.52;;;;;;;27.18;49.09;101912.88;4975047;28;20047;-87
2023/06/25 06:42:17;;;;;;;11.50;10.48;;;;;;;27.24;48.39;101908.00;4974210;28;20127;-86
2023/06/25 06:44:44;;;;;;;13.57;10.50;;;;;;;27.24;48.45;101908.00;4975318;28;20043;-85
2023/06/25 06:47:10;;;;;;;12.10;10.32;;;;;;;27.27;48.98;101904.19;4974149;28;20043;-86
2023/06/25 06:49:37;;;;;;;12.27;11.05;;;;;;;27.34;48.14;101905.56;4974403;28;20043;-83
2023/06/25 06:52:04;;;;;;;13.57;10.73;;;;;;;27.25;48.10;101904.00;4975637;28;20053;-80
2023/06/25 06:54:31;;;;;;;11.88;10.25;;;;;;;27.11;48.83;101902.56;4974539;28;20051;-82
2023/06/25 06:56:57;;;;;;;11.43;9.93;;;;;;;27.29;48.47;101896.22;4973768;28;20047;-80
2023/06/25 06:59:24;;;;;;;11.02;10.02;;;;;;;27.43;48.87;101899.66;4974667;28;20082;-78
2023/06/25 07:01:50;;;;;;;16.13;10.63;;;;;;;27.51;47.15;101900.47;4975309;28;20071;-78
2023/06/25 07:04:17;;;;;;;11.30;10.20;;;;;;;27.46;47.28;101906.78;4974517;28;20053;-78
2023/06/25 07:06:44;;;;;;;15.02;10.25;;;;;;;27.58;47.81;101899.81;4974921;28;20149;-78
2023/06/25 07:09:10;;;;;;;11.73;10.52;;;;;;;27.54;47.49;101900.16;4975263;28;20046;-77
2023/06/25 07:11:37;;;;;;;11.55;10.38;;;;;;;27.67;47.76;101898.63;4989439;28;20539;-79
2023/06/25 07:14:03;;;;;;;10.55;9.50;;;;;;;28.01;47.27;101904.03;4994582;28;20039;-77
2023/06/25 07:16:30;;;;;;;10.90;9.82;;;;;;;28.15;46.62;101897.97;4994011;28;20051;-78
2023/06/25 07:18:56;;;;;;;12.02;9.55;;;;;;;28.12;47.61;101896.31;4993659;28;20043;-79
2023/06/25 07:21:23;;;;;;;10.93;10.00;;;;;;;27.96;46.27;101897.47;4975964;28;20512;-81
2023/06/25 07:23:50;;;;;;;10.85;9.75;;;;;;;27.94;47.47;101897.25;4994169;28;20462;-80
2023/06/25 07:26:16;;;;;;;10.90;9.82;;;;;;;28.21;46.45;101892.38;4994292;28;20074;-79
2023/06/25 07:28:43;;;;;;;10.23;9.32;;;;;;;28.50;46.12;101891.13;4975710;28;20046;-84
2023/06/25 07:31:09;;;;;;;13.38;9.32;;;;;;;28.68;46.38;101885.94;4994256;28;20047;-81
2023/06/25 07:33:36;;;;;;;13.07;9.52;;;;;;;28.43;44.95;101882.84;4991871;28;20472;-80
2023/06/25 07:36:03;;;;;;;10.23;9.30;;;;;;;28.57;44.88;101883.47;4994005;28;20046;-80
2023/06/25 07:38:29;;;;;;;13.07;9.85;;;;;;;28.63;43.61;101882.06;4993911;28;20051;-79
2023/06/25 07:40:56;;;;;;;10.15;9.23;;;;;;;28.65;44.02;101881.53;4994039;28;20054;-84
2023/06/25 07:43:22;;;;;;;11.18;9.20;;;;;;;28.81;44.95;101878.34;4993599;28;20042;-82
2023/06/25 07:45:49;;;;;;;9.60;8.70;;;;;;;28.80;43.07;101887.06;4994110;28;20527;-81
2023/06/25 07:48:15;;;;;;;11.93;9.07;;;;;;;28.76;43.16;101878.47;4993525;28;20493;-81
2023/06/25 07:50:42;;;;;;;9.80;8.90;;;;;;;28.87;43.65;101884.38;4993552;28;20477;-81
2023/06/25 07:53:08;;;;;;;10.77;8.90;;;;;;;29.01;43.76;101876.03;4994172;28;20038;-82
2023/06/25 07:55:40;;;;;;;10.52;8.70;;;;;;;29.12;43.17;101870.97;4993483;28;20496;-82
2023/06/25 07:58:27;;;;;;;9.90;8.02;;;;;;;29.25;41.77;101872.09;4993026;28;20051;-81
2023/06/25 08:00:53;;;;;;;9.00;7.70;;;;;;;29.17;41.22;101869.34;4976107;28;20506;-83
2023/06/25 08:03:21;;;;;;;8.85;8.13;;;;;;;29.17;42.00;101872.09;4993631;28;20121;-82
2023/06/25 08:05:48;;;;;;;8.50;6.95;;;;;;;29.41;41.55;101871.63;4976505;28;20081;-83
2023/06/25 08:08:15;;;;;;;7.93;7.22;;;;;;;29.58;39.63;101864.88;4993711;28;20291;-86
2023/06/25 08:10:41;;;;;;;7.97;7.18;;;;;;;29.82;38.36;101867.09;4992635;28;20059;-83
2023/06/25 08:13:08;;;;;;;8.27;7.32;;;;;;;29.86;39.97;101870.94;4992253;28;20050;-81
2023/06/25 08:15:34;;;;;;;12.35;7.95;;;;;;;29.99;39.29;101863.78;4992760;28;20051;-80
2023/06/25 08:18:01;;;;;;;8.10;7.40;;;;;;;30.23;39.70;101860.50;4993649;28;20652;-83
2023/06/25 08:20:30;;;;;;;8.10;7.32;;;;;;;30.16;39.00;101853.72;4975600;28;20498;-82
2023/06/25 08:22:57;;;;;;;7.53;6.93;;;;;;;30.18;38.38;101855.91;4993298;28;20105;-83
2023/06/25 08:25:26;;;;;;;7.72;7.03;;;;;;;30.18;38.05;101851.16;4991552;28;20055;-83
2023/06/25 08:27:53;;;;;;;10.48;6.93;;;;;;;30.03;39.17;101851.16;4993219;28;20043;-83
2023/06/25 08:30:19;;;;;;;10.50;7.07;;;;;;;30.19;38.26;101849.88;4992920;28;20043;-84
2023/06/25 08:32:46;;;;;;;10.40;6.90;;;;;;;30.49;39.12;101845.59;4993404;28;20720;-82
2023/06/25 08:35:12;;;;;;;7.80;6.38;;;;;;;30.55;37.65;101843.38;4991823;28;20102;-83
2023/06/25 08:37:39;;;;;;;11.82;7.05;;;;;;;30.43;38.39;101842.31;4993045;28;20043;-89
2023/06/25 08:40:10;;;;;;;8.50;6.35;;;;;;;30.65;37.46;101838.78;4993158;28;20110;-79
2023/06/25 08:42:36;;;;;;;;;;;;;;;30.89;39.62;101831.88;4993535;28;20511;-78
2023/06/25 08:45:03;;;;;;;8.48;6.55;;;;;;;30.99;36.07;101829.28;4990973;28;19930;-81
2023/06/25 08:47:36;;;;;;;6.60;6.00;;;;;;;31.31;35.63;101829.28;4992230;28;20516;-81
2023/06/25 08:50:03;;;;;;;7.50;6.90;;;;;;;31.35;34.72;101831.66;4993232;28;20047;-80
2023/06/25 08:52:30;;;;;;;10.80;6.80;;;;;;;31.17;35.30;101833.63;4992278;28;20126;-80
2023/06/25 08:54:57;;;;;;;7.15;6.40;;;;;;;31.09;37.58;101827.41;4992706;28;20082;-81
2023/06/25 08:57:24;;;;;;;7.13;6.43;;;;;;;31.34;36.85;101819.91;4992736;28;20496;-80
2023/06/25 08:59:51;;;;;;;6.88;5.80;;;;;;;31.47;35.89;101822.41;4974954;28;20190;-80
2023/06/25 09:02:18;;;;;;;5.70;5.20;;;;;;;31.69;36.70;101818.00;4992772;28;20509;-82
2023/06/25 09:04:46;;;;;;;5.57;5.18;;;;;;;31.70;34.37;101818.75;4993018;28;20042;-79
2023/06/25 09:07:16;;;;;;;5.65;5.10;;;;;;;31.90;34.98;101817.66;4992296;28;20452;-84
2023/06/25 09:09:43;;;;;;;7.93;5.80;;;;;;;32.18;33.64;101819.19;4992965;28;20043;-82
2023/06/25 09:12:10;;;;;;;6.35;5.30;;;;;;;32.26;33.89;101824.66;4992956;28;20043;-85
2023/06/25 09:14:37;;;;;;;5.78;5.22;;;;;;;32.33;32.69;101821.09;4991860;28;20055;-83
2023/06/25 09:17:05;;;;;;;5.70;4.65;;;;;;;32.31;29.38;101824.41;4992319;28;20142;-84
2023/06/25 09:19:31;;;;;;;4.70;4.30;;;;;;;32.34;31.49;101817.78;4992679;28;20043;-87
2023/06/25 09:21:58;;;;;;;4.05;3.67;;;;;;;32.43;29.73;101817.09;4974571;28;20142;-86
2023/06/25 09:24:26;;;;;;;4.18;3.88;;;;;;;32.35;28.84;101815.75;4995010;28;20043;-83
2023/06/25 09:26:53;;;;;;;4.03;3.72;;;;;;;32.53;28.64;101816.44;4995786;28;20071;-83
2023/06/25 09:29:22;;;;;;;5.00;3.80;;;;;;;32.34;28.29;101814.28;4995133;28;20493;-81
2023/06/25 09:31:49;;;;;;;4.32;4.10;;;;;;;32.40;28.79;101814.75;4977835;28;20078;-79
2023/06/25 09:34:18;;;;;;;4.88;3.83;;;;;;;32.15;28.56;101803.81;4995761;28;20119;-83
2023/06/25 09:36:45;;;;;;;4.00;3.70;;;;;;;32.52;28.59;101803.94;4995852;28;20039;-89
2023/06/25 09:39:12;;;;;;;4.30;4.00;;;;;;;32.57;28.13;101795.44;4995710;28;20490;-81
2023/06/25 09:41:43;;;;;;;4.95;4.70;;;;;;;32.59;28.39;101790.09;4995245;28;20044;-86
2023/06/25 09:44:10;;;;;;;;;;;;;;;32.77;30.81;101790.81;4994993;28;20163;-79
2023/06/25 09:46:39;;;;;;;5.50;3.67;;;;;;;32.81;28.38;101794.56;4994933;28;19930;-81
2023/06/25 09:49:09;;;;;;;4.10;3.70;;;;;;;32.77;28.54;101793.56;4995772;28;20050;-84
2023/06/25 09:51:55;;;;;;;4.13;3.90;;;;;;;32.99;28.79;101792.50;4995289;28;20043;-85
2023/06/25 09:54:23;;;;;;;7.72;4.03;;;;;;;33.03;28.08;101789.31;4995242;28;20795;-78
2023/06/25 09:56:51;;;;;;;4.90;4.22;;;;;;;33.18;28.61;101778.06;4994870;28;20051;-81
2023/06/25 09:59:18;;;;;;;4.85;4.55;;;;;;;33.11;27.99;101782.41;4995584;28;20489;-87
2023/06/25 10:01:47;;;;;;;4.40;4.10;;;;;;;33.31;28.53;101785.97;4977572;28;20175;-85
2023/06/25 10:04:14;;;;;;;4.60;4.38;;;;;;;33.20;28.50;101785.75;4978372;28;20054;-83
2023/06/25 10:06:41;;;;;;;5.13;4.50;;;;;;;33.42;28.56;101784.69;4995145;28;20046;-83
2023/06/25 10:09:08;;;;;;;4.50;3.95;;;;;;;33.31;29.05;101769.41;4995391;28;20039;-85
2023/06/25 10:11:35;;;;;;;6.15;4.93;;;;;;;33.39;30.32;101777.56;4976282;28;20562;-80
2023/06/25 10:14:04;;;;;;;4.22;3.92;;;;;;;33.69;29.87;101774.28;4995280;28;20122;-80
2023/06/25 10:16:33;;;;;;;4.72;4.30;;;;;;;33.77;28.65;101763.09;4994779;28;20114;-80
2023/06/25 10:19:04;;;;;;;4.53;4.22;;;;;;;33.95;30.12;101766.47;4993849;28;20519;-81
2023/06/25 10:21:31;;;;;;;4.55;3.90;;;;;;;34.17;27.88;101757.00;4994932;28;20057;-85
2023/06/25 10:23:59;;;;;;;4.32;4.00;;;;;;;34.35;28.44;101757.59;4995267;28;20500;-86
2023/06/25 10:26:27;;;;;;;4.38;4.07;;;;;;;34.25;28.45;101756.84;4994164;28;20101;-85
2023/06/25 10:28:54;;;;;;;6.63;4.15;;;;;;;34.19;28.98;101750.91;4977414;28;20397;-82
2023/06/25 10:31:20;;;;;;;4.28;3.97;;;;;;;34.21;27.61;101757.28;4994782;28;20480;-83
2023/06/25 10:33:47;;;;;;;4.80;4.15;;;;;;;34.35;26.75;101750.03;4995108;28;20047;-82
2023/06/25 10:36:14;;;;;;;4.35;4.05;;;;;;;34.27;26.97;101745.94;4994256;28;20519;-84
2023/06/25 10:38:41;;;;;;;5.55;4.10;;;;;;;34.14;27.20;101744.34;4994722;28;20069;-81
2023/06/25 10:41:07;;;;;;;4.30;4.10;;;;;;;34.34;28.26;101748.59;4994099;28;20043;-82
2023/06/25 10:43:36;;;;;;;4.63;4.30;;;;;;;34.48;27.74;101742.56;4994678;28;20110;-86
2023/06/25 10:46:03;;;;;;;4.32;4.03;;;;;;;34.61;27.20;101739.34;4994637;28;20047;-82
2023/06/25 10:48:29;;;;;;;4.20;3.85;;;;;;;34.47;26.57;101733.56;4994362;28;20480;-87
2023/06/25 10:50:56;;;;;;;3.97;3.67;;;;;;;34.50;26.74;101734.41;4994816;28;20057;-80
2023/06/25 10:53:23;;;;;;;5.82;3.92;;;;;;;34.50;27.04;101732.38;4994540;28;20047;-82
2023/06/25 10:55:53;;;;;;;3.72;3.53;;;;;;;34.58;25.70;101726.69;4994334;28;20567;-90
2023/06/25 10:58:23;;;;;;;3.90;3.70;;;;;;;34.60;26.53;101713.72;4994942;28;20065;-84
2023/06/25 11:00:57;;;;;;;9.52;3.80;;;;;;;34.54;26.55;101720.88;4994887;28;20110;-85
2023/06/25 11:03:24;;;;;;;15.15;13.75;;;;;;;34.35;27.50;101730.69;4995995;28;20547;-90
2023/06/25 11:05:51;;;;;;;5.88;4.88;;;;;;;34.44;26.96;101718.13;4977691;28;20476;-86
2023/06/25 11:08:23;;;;;;;4.50;4.10;;;;;;;34.57;27.14;101714.19;4994166;28;20087;-86
2023/06/25 11:10:49;;;;;;;4.53;4.22;;;;;;;34.65;27.31;101717.50;4994062;28;20434;-87
2023/06/25 11:13:16;;;;;;;4.93;4.18;;;;;;;34.72;28.17;101716.59;4994956;28;20104;-89
2023/06/25 11:15:43;;;;;;;4.68;3.95;;;;;;;34.89;28.91;101715.66;4994533;28;20047;-85
2023/06/25 11:18:10;;;;;;;4.30;4.00;;;;;;;35.07;26.99;101714.84;4994535;28;20061;-89
2023/06/25 11:20:42;;;;;;;4.30;4.00;;;;;;;35.06;26.72;101707.13;4994540;28;20046;-87